createdAt,value
2022-10-25T00:02:20.330Z,0.63
2022-10-25T00:04:49.942Z,0.60
2022-10-25T00:07:17.846Z,0.50
2022-10-25T00:09:45.693Z,0.50
2022-10-25T00:12:13.549Z,0.70
2022-10-25T00:14:41.396Z,0.53
2022-10-25T00:17:09.315Z,0.40
2022-10-25T00:19:37.352Z,0.80
2022-10-25T00:22:06.558Z,0.60
2022-10-25T00:24:34.434Z,0.40
2022-10-25T00:27:02.310Z,0.67
2022-10-25T00:29:30.192Z,0.70
2022-10-25T00:31:58.056Z,0.47
2022-10-25T00:34:26.073Z,0.53
2022-10-25T00:36:53.913Z,0.50
2022-10-25T00:39:23.113Z,0.50
2022-10-25T00:41:50.984Z,0.47
2022-10-25T00:44:47.095Z,0.60
2022-10-25T00:47:21.468Z,0.50
2022-10-25T00:49:56.428Z,0.40
2022-10-25T00:52:24.793Z,0.40
2022-10-25T00:54:55.502Z,0.50
2022-10-25T00:57:27.638Z,0.40
2022-10-25T00:59:55.768Z,0.50
2022-10-25T01:02:24.220Z,0.40
2022-10-25T01:04:53.490Z,0.43
2022-10-25T01:07:21.449Z,0.47
2022-10-25T01:09:49.661Z,0.43
2022-10-25T01:12:18.926Z,0.40
2022-10-25T01:14:49.346Z,0.60
2022-10-25T01:17:25.340Z,0.50
2022-10-25T01:20:31.314Z,0.50
2022-10-25T01:23:09.913Z,0.50
2022-10-25T01:25:56.517Z,0.50
2022-10-25T01:28:34.452Z,0.40
2022-10-25T01:31:17.526Z,0.40
2022-10-25T01:33:52.147Z,0.50
2022-10-25T01:36:26.980Z,0.40
2022-10-25T01:39:00.866Z,0.40
2022-10-25T01:41:37.254Z,0.40
2022-10-25T01:44:16.855Z,0.47
2022-10-25T01:46:51.812Z,0.30
2022-10-25T01:49:27.371Z,0.40
2022-10-25T01:51:55.477Z,0.50
2022-10-25T01:54:25.791Z,0.40
2022-10-25T01:57:04.480Z,0.50
2022-10-25T01:59:54.726Z,0.50
2022-10-25T02:02:31.514Z,0.60
2022-10-25T02:05:09.692Z,0.43
2022-10-25T02:07:39.937Z,0.30
2022-10-25T02:10:10.668Z,0.40
2022-10-25T02:12:49.519Z,0.40
2022-10-25T02:15:24.138Z,0.53
2022-10-25T02:17:58.455Z,0.53
2022-10-25T02:20:29.316Z,0.47
2022-10-25T02:23:00.612Z,0.50
2022-10-25T02:25:29.279Z,0.50
2022-10-25T02:27:59.444Z,0.50
2022-10-25T02:30:27.856Z,0.50
2022-10-25T02:32:56.969Z,0.43
2022-10-25T02:35:24.898Z,0.53
2022-10-25T02:37:52.658Z,0.70
2022-10-25T02:40:20.922Z,0.57
2022-10-25T02:42:48.654Z,0.50
2022-10-25T02:45:16.613Z,0.60
2022-10-25T02:47:44.584Z,0.40
2022-10-25T02:50:14.009Z,0.57
2022-10-25T02:52:41.826Z,0.80
2022-10-25T02:55:10.092Z,0.60
2022-10-25T02:57:38.965Z,0.77
2022-10-25T03:00:08.440Z,0.80
2022-10-25T03:02:36.261Z,0.70
2022-10-25T03:05:04.094Z,0.60
2022-10-25T03:07:33.208Z,0.70
2022-10-25T03:10:00.979Z,0.60
2022-10-25T03:12:28.739Z,0.70
2022-10-25T03:14:56.503Z,0.50
2022-10-25T03:17:24.236Z,0.80
2022-10-25T03:19:51.965Z,0.80
2022-10-25T03:22:19.708Z,0.70
2022-10-25T03:24:48.809Z,0.60
2022-10-25T03:27:17.690Z,0.80
2022-10-25T03:29:45.432Z,0.90
2022-10-25T03:32:13.182Z,0.83
2022-10-25T03:34:40.953Z,0.80
2022-10-25T03:37:08.718Z,0.60
2022-10-25T03:39:36.467Z,0.70
2022-10-25T03:42:05.691Z,0.70
2022-10-25T03:44:33.465Z,0.90
2022-10-25T03:47:01.205Z,0.80
2022-10-25T03:49:28.945Z,0.50
2022-10-25T03:51:58.888Z,0.60
2022-10-25T03:54:29.449Z,0.60
2022-10-25T03:56:57.339Z,0.50
2022-10-25T03:59:26.569Z,0.60
2022-10-25T04:01:54.653Z,0.60
2022-10-25T04:04:22.671Z,0.60
2022-10-25T04:06:50.456Z,0.50
2022-10-25T04:09:18.357Z,0.60
2022-10-25T04:11:46.102Z,0.50
2022-10-25T04:14:14.001Z,0.43
2022-10-25T04:16:43.081Z,0.60
2022-10-25T04:19:10.849Z,0.53
2022-10-25T04:21:38.581Z,0.60
2022-10-25T04:24:06.996Z,0.50
2022-10-25T04:26:36.500Z,0.50
2022-10-25T04:29:05.873Z,0.53
2022-10-25T04:31:34.213Z,0.40
2022-10-25T04:34:03.306Z,0.80
2022-10-25T04:36:32.116Z,0.73
2022-10-25T04:39:00.272Z,0.80
2022-10-25T04:41:28.022Z,0.70
2022-10-25T04:43:55.773Z,0.50
2022-10-25T04:46:23.949Z,0.50
2022-10-25T04:48:51.722Z,0.70
2022-10-25T04:51:21.014Z,0.60
2022-10-25T04:53:48.766Z,0.50
2022-10-25T04:56:16.540Z,0.73
2022-10-25T04:58:44.265Z,0.60
2022-10-25T05:01:15.294Z,0.60
2022-10-25T05:03:43.441Z,0.80
2022-10-25T05:06:12.791Z,0.53
2022-10-25T05:08:45.794Z,0.50
2022-10-25T05:11:15.131Z,0.60
2022-10-25T05:13:44.829Z,0.70
2022-10-25T05:16:17.071Z,0.53
2022-10-25T05:18:46.180Z,0.60
2022-10-25T05:21:14.914Z,0.73
2022-10-25T05:23:44.079Z,0.63
2022-10-25T05:26:13.892Z,1.03
2022-10-25T05:28:43.499Z,0.80
2022-10-25T05:31:15.077Z,0.97
2022-10-25T05:33:44.888Z,0.90
2022-10-25T05:36:13.863Z,0.80
2022-10-25T05:38:41.965Z,1.00
2022-10-25T05:41:12.756Z,0.87
2022-10-25T05:43:40.685Z,1.00
2022-10-25T05:46:11.343Z,1.10
2022-10-25T05:48:40.828Z,0.90
2022-10-25T05:51:28.988Z,1.40
2022-10-25T05:54:02.001Z,2.00
2022-10-25T05:56:32.211Z,1.63
2022-10-25T05:59:03.374Z,1.50
2022-10-25T06:01:31.217Z,1.87
2022-10-25T06:03:59.019Z,2.03
2022-10-25T06:06:27.153Z,2.20
2022-10-25T06:08:57.944Z,2.50
2022-10-25T06:11:26.796Z,2.07
2022-10-25T06:13:56.025Z,1.63
2022-10-25T06:16:24.129Z,2.37
2022-10-25T06:18:52.110Z,2.00
2022-10-25T06:21:22.073Z,2.00
2022-10-25T06:23:50.345Z,1.60
2022-10-25T06:26:19.801Z,1.60
2022-10-25T06:28:47.699Z,1.50
2022-10-25T06:31:18.748Z,1.50
2022-10-25T06:33:47.109Z,1.63
2022-10-25T06:36:16.802Z,1.20
2022-10-25T06:38:45.177Z,1.20
2022-10-25T06:41:15.049Z,1.47
2022-10-25T06:43:42.799Z,1.67
2022-10-25T06:46:12.069Z,2.50
2022-10-25T06:48:41.141Z,6.33
2022-10-25T06:51:10.057Z,7.10
2022-10-25T06:53:38.585Z,5.93
2022-10-25T06:56:10.677Z,5.40
2022-10-25T06:58:42.447Z,4.37
2022-10-25T07:01:13.043Z,3.67
2022-10-25T07:03:43.146Z,3.03
2022-10-25T07:06:12.645Z,1.87
2022-10-25T07:08:41.913Z,1.70
2022-10-25T07:11:13.884Z,1.33
2022-10-25T07:13:41.626Z,1.07
2022-10-25T07:16:12.113Z,1.10
2022-10-25T07:18:39.929Z,0.87
2022-10-25T07:21:12.737Z,1.10
2022-10-25T07:23:42.822Z,0.80
2022-10-25T07:26:11.549Z,1.07
2022-10-25T07:28:39.872Z,1.10
2022-10-25T07:31:07.945Z,1.07
2022-10-25T07:33:35.688Z,1.10
2022-10-25T07:36:10.692Z,1.53
2022-10-25T07:38:40.950Z,1.33
2022-10-25T07:41:09.405Z,1.40
2022-10-25T07:43:37.667Z,1.03
2022-10-25T07:46:06.414Z,1.10
2022-10-25T07:48:34.398Z,1.20
2022-10-25T07:51:05.012Z,1.10
2022-10-25T07:53:32.883Z,1.23
2022-10-25T07:56:02.072Z,1.47
2022-10-25T07:58:29.876Z,1.43
2022-10-25T08:01:02.267Z,1.20
2022-10-25T08:03:30.258Z,1.10
2022-10-25T08:05:58.196Z,1.00
2022-10-25T08:08:26.044Z,0.90
2022-10-25T08:10:54.116Z,0.90
2022-10-25T08:13:23.513Z,0.70
2022-10-25T08:15:51.801Z,1.10
2022-10-25T08:18:19.657Z,1.07
2022-10-25T08:21:02.804Z,0.97
2022-10-25T08:23:32.239Z,0.80
2022-10-25T08:26:00.280Z,0.70
2022-10-25T08:28:31.005Z,0.97
2022-10-25T08:31:00.476Z,1.30
2022-10-25T08:33:28.433Z,1.00
2022-10-25T08:35:56.193Z,0.90
2022-10-25T08:38:23.948Z,0.83
2022-10-25T08:40:59.010Z,0.77
2022-10-25T08:43:55.769Z,0.70
2022-10-25T08:46:28.436Z,0.90
2022-10-25T08:49:07.073Z,0.90
2022-10-25T08:51:38.770Z,0.90
2022-10-25T08:54:17.665Z,1.00
2022-10-25T08:56:56.944Z,1.10
2022-10-25T08:59:40.499Z,0.90
2022-10-25T09:02:17.234Z,0.83
2022-10-25T09:04:45.181Z,1.00
2022-10-25T09:07:32.356Z,0.83
2022-10-25T09:10:10.109Z,0.60
2022-10-25T09:12:45.050Z,0.70
2022-10-25T09:15:20.967Z,0.60
2022-10-25T09:17:51.565Z,1.50
2022-10-25T09:20:22.089Z,1.13
2022-10-25T09:22:54.689Z,1.20
2022-10-25T09:25:29.814Z,0.97
2022-10-25T09:28:01.126Z,0.87
2022-10-25T09:30:35.340Z,0.83
2022-10-25T09:33:06.787Z,0.90
2022-10-25T09:35:43.029Z,0.70
2022-10-25T09:38:15.481Z,0.75
2022-10-25T09:40:47.887Z,0.85
2022-10-25T09:43:19.159Z,0.80
2022-10-25T09:45:51.105Z,0.70
2022-10-25T09:48:27.052Z,0.82
2022-10-25T09:51:00.316Z,0.80
2022-10-25T09:53:28.072Z,0.60
2022-10-25T09:55:58.401Z,0.93
2022-10-25T09:58:28.499Z,0.90
2022-10-25T10:01:00.481Z,0.77
2022-10-25T10:03:31.127Z,1.00
2022-10-25T10:06:02.721Z,0.50
2022-10-25T10:08:35.073Z,0.70
2022-10-25T10:11:04.778Z,0.80
2022-10-25T10:13:38.361Z,0.67
2022-10-25T10:16:22.684Z,0.90
2022-10-25T10:18:50.477Z,0.63
2022-10-25T10:21:20.776Z,0.80
2022-10-25T10:23:52.921Z,0.50
2022-10-25T10:26:29.185Z,0.60
2022-10-25T10:29:15.377Z,0.70
2022-10-25T10:31:49.209Z,0.50
2022-10-25T10:34:28.625Z,0.40
2022-10-25T10:37:03.950Z,0.70
2022-10-25T10:39:32.098Z,0.67
2022-10-25T10:42:04.789Z,0.80
2022-10-25T10:44:34.759Z,0.60
2022-10-25T10:47:12.155Z,0.60
2022-10-25T10:49:42.614Z,0.60
2022-10-25T10:52:29.064Z,0.80
2022-10-25T10:54:57.749Z,0.80
2022-10-25T10:57:31.156Z,0.87
2022-10-25T11:00:00.789Z,0.70
2022-10-25T11:02:38.394Z,0.70
2022-10-25T11:05:20.700Z,0.70
2022-10-25T11:07:57.919Z,0.77
2022-10-25T11:10:31.197Z,0.70
2022-10-25T11:13:07.634Z,0.87
2022-10-25T11:15:53.689Z,0.90
2022-10-25T11:18:28.851Z,1.20
2022-10-25T11:21:04.601Z,0.73
2022-10-25T11:23:41.545Z,0.77
2022-10-25T11:26:17.839Z,0.87
2022-10-25T11:28:53.570Z,0.83
2022-10-25T11:31:32.986Z,1.30
2022-10-25T11:34:14.481Z,1.00
2022-10-25T11:36:53.368Z,0.87
2022-10-25T11:39:44.693Z,0.77
2022-10-25T11:42:32.749Z,0.90
2022-10-25T11:45:29.341Z,0.63
2022-10-25T11:48:13.960Z,1.23
2022-10-25T11:50:50.819Z,0.77
2022-10-25T11:53:30.905Z,1.07
2022-10-25T11:56:04.761Z,1.00
2022-10-25T11:58:42.370Z,0.70
2022-10-25T12:01:23.627Z,0.70
2022-10-25T12:04:07.357Z,0.70
2022-10-25T12:06:45.379Z,0.50
2022-10-25T12:09:25.182Z,0.60
2022-10-25T12:11:59.153Z,0.50
2022-10-25T12:14:33.914Z,0.40
2022-10-25T12:17:03.885Z,0.60
2022-10-25T12:19:37.778Z,0.80
2022-10-25T12:22:12.941Z,0.70
2022-10-25T12:24:44.880Z,0.63
2022-10-25T12:27:13.489Z,0.70
2022-10-25T12:29:45.024Z,0.60
2022-10-25T12:32:18.068Z,0.50
2022-10-25T12:34:49.104Z,0.70
2022-10-25T12:37:28.056Z,0.50
2022-10-25T12:39:56.001Z,0.60
2022-10-25T12:42:26.244Z,0.53
2022-10-25T12:45:33.640Z,0.57
2022-10-25T12:48:14.348Z,0.40
2022-10-25T12:50:58.688Z,0.53
2022-10-25T12:53:56.291Z,0.63
2022-10-25T12:56:34.774Z,0.40
2022-10-25T12:59:09.988Z,0.53
2022-10-25T13:02:03.073Z,0.40
2022-10-25T13:04:51.441Z,0.50
2022-10-25T13:07:19.932Z,0.67
2022-10-25T13:09:50.923Z,0.73
2022-10-25T13:12:26.150Z,0.40
2022-10-25T13:14:56.081Z,0.40
2022-10-25T13:17:48.214Z,0.40
2022-10-25T13:20:51.189Z,0.60
2022-10-25T13:23:59.826Z,0.87
2022-10-25T13:26:32.920Z,0.53
2022-10-25T13:29:03.049Z,0.57
2022-10-25T13:31:58.361Z,0.40
2022-10-25T13:34:36.737Z,0.33
2022-10-25T13:37:07.333Z,0.60
2022-10-25T13:39:40.004Z,0.40
2022-10-25T13:42:23.261Z,0.60
2022-10-25T13:44:56.373Z,0.30
2022-10-25T13:47:39.263Z,0.30
2022-10-25T13:50:20.562Z,0.23
2022-10-25T13:53:02.526Z,0.40
2022-10-25T13:55:34.900Z,0.40
2022-10-25T13:58:41.604Z,0.23
2022-10-25T14:01:57.673Z,0.30
2022-10-25T14:04:37.840Z,0.70
2022-10-25T14:07:43.213Z,0.40
2022-10-25T14:12:54.393Z,0.30
2022-10-25T14:15:36.098Z,0.50
2022-10-25T14:18:08.797Z,0.60
2022-10-25T14:20:37.591Z,0.40
2022-10-25T14:23:07.966Z,0.60
2022-10-25T14:25:38.223Z,0.57
2022-10-25T14:28:08.305Z,0.47
2022-10-25T14:30:40.885Z,0.50
2022-10-25T14:33:22.927Z,0.40
2022-10-25T14:35:52.228Z,0.40
2022-10-25T14:38:22.293Z,0.60
2022-10-25T14:40:55.076Z,0.47
2022-10-25T14:43:26.194Z,0.50
2022-10-25T14:46:04.529Z,0.37
2022-10-25T14:48:32.710Z,0.40
2022-10-25T14:51:05.306Z,0.43
2022-10-25T14:53:33.541Z,0.40
2022-10-25T14:56:04.771Z,0.60
2022-10-25T14:58:40.877Z,0.40
2022-10-25T15:01:12.467Z,0.50
2022-10-25T15:03:43.515Z,0.50
2022-10-25T15:06:13.965Z,0.43
2022-10-25T15:08:49.161Z,0.50
2022-10-25T15:11:21.043Z,0.50
2022-10-25T15:13:50.969Z,0.40
2022-10-25T15:16:32.253Z,0.87
2022-10-25T15:19:18.387Z,0.50
2022-10-25T15:21:48.913Z,0.70
2022-10-25T15:24:20.298Z,0.70
2022-10-25T15:26:59.546Z,0.70
2022-10-25T15:29:32.298Z,0.80
2022-10-25T15:32:01.373Z,0.90
2022-10-25T15:34:29.209Z,0.60
2022-10-25T15:36:56.979Z,0.60
2022-10-25T15:39:27.785Z,0.63
2022-10-25T15:41:55.965Z,0.80
2022-10-25T15:44:23.705Z,1.20
2022-10-25T15:46:51.502Z,0.90
2022-10-25T15:49:20.735Z,1.10
2022-10-25T15:51:48.597Z,0.90
2022-10-25T15:54:17.612Z,1.13
2022-10-25T15:56:45.919Z,1.33
2022-10-25T16:01:50.799Z,1.17
2022-10-25T16:04:20.753Z,1.00
2022-10-25T16:06:48.896Z,0.90
2022-10-25T16:09:16.646Z,1.10
2022-10-25T16:11:48.987Z,1.10
2022-10-25T16:14:21.545Z,1.30
2022-10-25T16:16:49.453Z,1.30
2022-10-25T16:19:18.983Z,1.03
2022-10-25T16:21:48.078Z,1.07
2022-10-25T16:24:15.922Z,0.90
2022-10-25T16:26:46.053Z,0.87
2022-10-25T16:29:16.462Z,0.73
2022-10-25T16:31:44.340Z,0.90
2022-10-25T16:34:12.564Z,1.70
2022-10-25T16:36:40.315Z,2.77
2022-10-25T16:39:11.278Z,2.97
2022-10-25T16:41:40.821Z,3.60
2022-10-25T16:44:10.292Z,4.47
2022-10-25T16:46:38.105Z,3.97
2022-10-25T16:49:06.129Z,3.77
2022-10-25T16:51:34.684Z,3.30
2022-10-25T16:54:03.088Z,6.03
2022-10-25T16:56:32.290Z,16.50
2022-10-25T16:59:00.416Z,23.23
2022-10-25T17:01:31.213Z,20.20
2022-10-25T17:03:59.086Z,14.10
2022-10-25T17:06:42.943Z,11.60
2022-10-25T17:09:11.708Z,7.53
2022-10-25T17:11:41.102Z,4.90
2022-10-25T17:14:10.151Z,3.03
2022-10-25T17:16:39.465Z,2.07
2022-10-25T17:19:07.231Z,1.77
2022-10-25T17:21:35.711Z,1.47
2022-10-25T17:24:04.468Z,1.30
2022-10-25T17:26:32.216Z,1.00
2022-10-25T17:29:01.735Z,1.20
2022-10-25T17:31:29.847Z,1.10
2022-10-25T17:33:57.669Z,1.50
2022-10-25T17:36:26.386Z,2.10
2022-10-25T17:38:54.857Z,2.57
2022-10-25T17:41:22.695Z,2.73
2022-10-25T17:43:53.207Z,2.67
2022-10-25T17:46:27.511Z,2.57
2022-10-25T17:48:56.474Z,2.90
2022-10-25T17:51:24.400Z,2.70
2022-10-25T17:53:53.949Z,3.60
2022-10-25T17:56:23.091Z,3.30
2022-10-25T17:58:51.834Z,2.87
2022-10-25T18:01:21.927Z,3.00
2022-10-25T18:03:51.634Z,3.10
2022-10-25T18:08:54.262Z,3.50
2022-10-25T18:11:23.428Z,3.33
2022-10-25T18:13:51.622Z,3.40
2022-10-25T18:16:21.677Z,3.60
2022-10-25T18:18:50.767Z,2.97
2022-10-25T18:21:18.729Z,2.10
2022-10-25T18:23:46.505Z,2.27
2022-10-25T18:26:16.602Z,2.63
2022-10-25T18:28:44.573Z,2.13
2022-10-25T18:31:13.861Z,2.20
2022-10-25T18:33:43.383Z,2.57
2022-10-25T18:36:17.523Z,2.47
2022-10-25T18:38:45.718Z,2.50
2022-10-25T18:41:16.862Z,3.00
2022-10-25T18:43:44.916Z,2.80
2022-10-25T18:46:12.777Z,2.67
2022-10-25T18:48:40.529Z,2.70
2022-10-25T18:51:12.976Z,2.80
2022-10-25T18:53:41.185Z,3.87
2022-10-25T18:56:10.495Z,4.13
2022-10-25T18:58:38.343Z,4.87
2022-10-25T19:01:10.216Z,4.53
2022-10-25T19:03:38.766Z,4.97
2022-10-25T19:06:07.752Z,4.80
2022-10-25T19:08:37.711Z,5.07
2022-10-25T19:11:06.197Z,4.80
2022-10-25T19:13:34.136Z,4.63
2022-10-25T19:16:02.586Z,4.80
2022-10-25T19:18:32.222Z,4.30
2022-10-25T19:21:02.961Z,4.10
2022-10-25T19:23:30.801Z,4.30
2022-10-25T19:26:03.080Z,3.83
2022-10-25T19:28:30.967Z,4.80
2022-10-25T19:31:04.125Z,4.50
2022-10-25T19:33:31.877Z,4.27
2022-10-25T19:36:02.997Z,4.50
2022-10-25T19:38:30.791Z,4.33
2022-10-25T19:41:02.210Z,3.70
2022-10-25T19:43:30.085Z,4.03
2022-10-25T19:45:58.644Z,3.60
2022-10-25T19:48:28.372Z,3.43
2022-10-25T19:50:56.216Z,4.10
2022-10-25T19:53:24.316Z,3.23
2022-10-25T19:56:04.434Z,3.13
2022-10-25T19:58:32.227Z,2.80
2022-10-25T20:01:05.794Z,2.40
2022-10-25T20:03:34.010Z,2.50
2022-10-25T20:06:04.360Z,2.70
2022-10-25T20:08:33.472Z,2.87
2022-10-25T20:11:03.009Z,2.60
2022-10-25T20:13:32.551Z,2.50
2022-10-25T20:16:00.521Z,2.60
2022-10-25T20:18:31.793Z,2.30
2022-10-25T20:21:01.832Z,2.60
2022-10-25T20:23:30.024Z,2.80
2022-10-25T20:25:57.810Z,3.57
2022-10-25T20:28:26.941Z,3.10
2022-10-25T20:30:54.755Z,3.30
2022-10-25T20:33:22.497Z,2.57
2022-10-25T20:35:50.261Z,2.90
2022-10-25T20:38:18.042Z,2.90
2022-10-25T20:40:45.841Z,3.20
2022-10-25T20:43:13.606Z,3.30
2022-10-25T20:45:44.034Z,2.90
2022-10-25T20:48:11.889Z,3.20
2022-10-25T20:50:42.972Z,2.80
2022-10-25T20:53:11.921Z,3.20
2022-10-25T20:55:39.949Z,3.37
2022-10-25T20:58:07.746Z,3.10
2022-10-25T21:00:35.506Z,3.30
2022-10-25T21:03:04.620Z,2.80
2022-10-25T21:05:32.494Z,3.10
2022-10-25T21:08:00.240Z,3.20
2022-10-25T21:10:27.999Z,2.97
2022-10-25T21:12:55.734Z,3.27
2022-10-25T21:15:23.498Z,2.80
2022-10-25T21:17:51.461Z,2.60
2022-10-25T21:20:20.889Z,2.83
2022-10-25T21:22:48.645Z,3.00
2022-10-25T21:25:16.769Z,2.97
2022-10-25T21:27:44.604Z,2.87
2022-10-25T21:30:12.620Z,2.90
2022-10-25T21:32:40.409Z,2.73
2022-10-25T21:35:08.900Z,3.00
2022-10-25T21:37:37.992Z,3.00
2022-10-25T21:40:06.393Z,2.57
2022-10-25T21:42:34.576Z,2.93
2022-10-25T21:45:02.353Z,2.80
2022-10-25T21:47:30.116Z,2.63
2022-10-25T21:49:58.345Z,2.67
2022-10-25T21:52:26.109Z,2.60
2022-10-25T21:54:55.188Z,2.40
2022-10-25T21:57:22.969Z,2.70
2022-10-25T21:59:50.749Z,2.00
2022-10-25T22:02:18.643Z,2.10
2022-10-25T22:04:46.526Z,3.13
2022-10-25T22:07:14.254Z,2.53
2022-10-25T22:09:42.088Z,2.67
2022-10-25T22:12:11.181Z,2.53
2022-10-25T22:14:38.960Z,2.13
2022-10-25T22:17:07.150Z,2.10
2022-10-25T22:19:34.903Z,2.50
2022-10-25T22:22:02.649Z,2.30
2022-10-25T22:24:30.456Z,2.40
2022-10-25T22:26:58.176Z,2.27
2022-10-25T22:29:27.269Z,2.30
2022-10-25T22:31:55.018Z,2.27
2022-10-25T22:34:22.774Z,2.10
2022-10-25T22:36:50.635Z,2.20
2022-10-25T22:39:18.368Z,2.10
2022-10-25T22:41:46.175Z,2.47
2022-10-25T22:44:13.975Z,2.23
2022-10-25T22:46:43.092Z,2.00
2022-10-25T22:49:10.969Z,2.13
2022-10-25T22:51:39.357Z,2.30
2022-10-25T22:54:07.307Z,2.00
2022-10-25T22:56:35.375Z,2.00
2022-10-25T22:59:05.303Z,2.07
2022-10-25T23:01:34.924Z,2.07
2022-10-25T23:04:06.893Z,1.73
2022-10-25T23:06:36.625Z,2.00
2022-10-25T23:09:08.839Z,2.00
2022-10-25T23:11:38.131Z,1.70
2022-10-25T23:14:07.316Z,1.93
2022-10-25T23:16:35.482Z,1.80
2022-10-25T23:19:04.643Z,1.90
2022-10-25T23:21:33.228Z,1.80
2022-10-25T23:24:01.459Z,2.00
2022-10-25T23:26:31.711Z,1.70
2022-10-25T23:29:00.359Z,2.20
2022-10-25T23:31:28.732Z,2.10
2022-10-25T23:33:58.102Z,1.70
2022-10-25T23:36:29.162Z,1.90
2022-10-25T23:38:58.814Z,2.13
2022-10-25T23:41:26.666Z,2.10
2022-10-25T23:43:54.453Z,1.70
2022-10-25T23:46:22.512Z,2.20
2022-10-25T23:48:50.281Z,2.00
2022-10-25T23:51:19.188Z,2.10
2022-10-25T23:53:48.680Z,1.93
2022-10-25T23:56:16.557Z,2.00
2022-10-25T23:58:44.312Z,1.90
